Georgetown, Massachusetts
Current Conditions -  °F | °C
As of 4:54 AM on Sunday 25 Jan 2015 (Local Time) from KLWM Reporting Station
Few Clouds Few Clouds  
Wind Chill: 19°   Ceiling: Unl
Heat Index: 29°   Visibility: 10mi
Dew Point: 25°   Wind: 12mph
Humidity: 85%   Direction: 240°WSW
Pressure: 29.42"   Gusts: NA
Location:  42.73°N, 70.99°W
Report Text: KLWM 250954Z AUTO 24010KT 10SM FEW080 M02/M04 A2942 RMK AO2 SLP964 T10171039
Loading
Personal Weather Stations






























Interactive Weather Map New forecast layout! Learn more

10-Day Weather Forecast

Advertisements
Track Severe Weather on mobile